Farwell, Minnesota
Current Conditions -  °F | °C
As of 2:53 AM on Monday 20 Oct 2014 (Local Time) from KAXN Reporting Station
Clear Clear  
Wind Chill: 41°   Ceiling: Unl
Heat Index: 44°   Visibility: 10mi
Dew Point: 39°   Wind: 6mph
Humidity: 82%   Direction: 280°W
Pressure: 29.95"   Gusts: NA
Location:  45.75°N, 95.62°W
Report Text: KAXN 200753Z AUTO 28005KT 10SM CLR 07/04 A2995 RMK AO2 SLP146 T00670039
Loading
Personal Weather Stations






























Interactive Weather Map
Tropical Storm Tracking
New forecast layout! Learn more

10-Day Weather Forecast

Advertisements
Track Severe Weather on mobile